Time;durP1;ratioP1;P1;durP2;ratioP2;P2;SDS_P1;SDS_P2;PMS_P1;PMS_P2;Temp;Humidity;BMP_temperature;BMP_pressure;BME280_temperature;BME280_humidity;BME280_pressure;Samples;Min_cycle;Max_cycle;Signal;HPM_P1;HPM_P2
2022/06/12 00:02:08;;;;;;;4.15;2.08;;;19.70;99.90;;;;;;5093018;28;20495;-86
2022/06/12 00:04:33;;;;;;;3.63;2.33;;;19.70;99.90;;;;;;5093034;28;20028;-86
2022/06/12 00:06:59;;;;;;;6.97;2.25;;;19.60;99.90;;;;;;5093156;28;20035;-87
2022/06/12 00:09:25;;;;;;;4.80;2.00;;;19.50;99.90;;;;;;5084370;28;20020;-87
2022/06/12 00:11:50;;;;;;;5.20;2.20;;;19.60;99.90;;;;;;5075935;28;20036;-86
2022/06/12 00:14:16;;;;;;;6.32;2.75;;;19.60;99.90;;;;;;5092761;28;20024;-88
2022/06/12 00:16:44;;;;;;;2.60;2.03;;;19.60;99.90;;;;;;5093727;28;20055;-88
2022/06/12 00:19:10;;;;;;;3.95;2.30;;;19.50;99.90;;;;;;5076131;28;20077;-86
2022/06/12 00:21:36;;;;;;;4.63;2.50;;;19.50;99.90;;;;;;5092380;28;20039;-89
2022/06/12 00:24:06;;;;;;;2.72;2.20;;;19.40;99.90;;;;;;5075350;28;20028;-87
2022/06/12 00:26:37;;;;;;;2.55;2.25;;;19.50;99.90;;;;;;5072547;28;20028;-86
2022/06/12 00:29:06;;;;;;;3.03;1.90;;;19.50;99.90;;;;;;5075768;28;20052;-86
2022/06/12 00:31:35;;;;;;;8.70;2.38;;;19.50;99.90;;;;;;5060841;28;20032;-86
2022/06/12 00:34:02;;;;;;;4.57;2.38;;;19.40;99.90;;;;;;5076033;28;20031;-86
2022/06/12 00:36:27;;;;;;;2.65;2.08;;;19.40;99.90;;;;;;5075425;28;20036;-86
2022/06/12 00:38:53;;;;;;;2.80;2.30;;;19.30;99.90;;;;;;5093784;28;20127;-85
2022/06/12 00:41:19;;;;;;;6.43;2.55;;;19.30;99.90;;;;;;5075866;28;20032;-86
2022/06/12 00:43:45;;;;;;;5.07;2.40;;;19.30;99.90;;;;;;5093288;28;20077;-87
2022/06/12 00:46:39;;;;;;;7.78;2.78;;;19.40;99.90;;;;;;5103389;28;20020;-88
2022/06/12 00:49:19;;;;;;;3.30;2.67;;;19.40;99.90;;;;;;5079365;28;20453;-84
2022/06/12 00:51:49;;;;;;;3.80;2.50;;;19.30;99.90;;;;;;5055069;28;20043;-85
2022/06/12 00:54:15;;;;;;;5.15;2.58;;;19.30;99.90;;;;;;5080224;28;20032;-87
2022/06/12 00:56:47;;;;;;;4.28;2.03;;;19.20;99.90;;;;;;5092937;28;20777;-85
2022/06/12 00:59:16;;;;;;;4.72;2.83;;;19.20;99.90;;;;;;5095093;28;20028;-84
2022/06/12 01:01:48;;;;;;;7.38;2.50;;;19.10;99.90;;;;;;5077503;28;20028;-85
2022/06/12 01:07:02;;;;;;;5.13;2.35;;;19.00;99.90;;;;;;5094507;28;20071;-83
2022/06/12 01:09:35;;;;;;;6.50;2.35;;;19.00;99.90;;;;;;5078499;28;20114;-84
2022/06/12 01:12:04;;;;;;;5.35;2.45;;;18.90;99.90;;;;;;5079664;28;20043;-83
2022/06/12 01:14:35;;;;;;;4.10;2.70;;;18.80;99.90;;;;;;5079749;28;20028;-83
2022/06/12 01:17:02;;;;;;;9.05;3.05;;;18.90;99.90;;;;;;5080300;28;20054;-83
2022/06/12 01:19:42;;;;;;;5.68;2.50;;;18.90;99.90;;;;;;5079665;28;20028;-83
2022/06/12 01:22:14;;;;;;;3.53;2.22;;;18.80;99.90;;;;;;5079910;28;20057;-83
2022/06/12 01:24:45;;;;;;;;;;;18.80;99.90;;;;;;5079961;28;20067;-83
2022/06/12 01:27:35;;;;;;;3.40;2.05;;;18.80;99.90;;;;;;5079834;28;20364;-83
2022/06/12 01:30:26;;;;;;;3.97;2.30;;;18.70;99.90;;;;;;5079642;28;20028;-83
2022/06/12 01:33:10;;;;;;;2.45;2.20;;;18.80;99.90;;;;;;5079897;28;20024;-84
2022/06/12 01:35:50;;;;;;;6.05;2.40;;;18.70;99.90;;;;;;5078813;28;20061;-85
2022/06/12 01:38:26;;;;;;;4.43;2.17;;;18.70;99.90;;;;;;5079604;28;20032;-84
2022/06/12 01:41:08;;;;;;;5.43;2.30;;;18.70;99.90;;;;;;5079623;28;20384;-85
2022/06/12 01:43:41;;;;;;;;;;;18.70;99.90;;;;;;5079479;28;20043;-85
2022/06/12 01:46:10;;;;;;;4.78;1.95;;;18.70;99.90;;;;;;5096710;28;19904;-84
2022/06/12 01:48:44;;;;;;;3.25;1.80;;;18.50;99.90;;;;;;5079187;28;20047;-85
2022/06/12 01:51:23;;;;;;;4.80;2.00;;;18.50;99.90;;;;;;5079619;28;20028;-85
2022/06/12 01:54:03;;;;;;;3.22;1.90;;;18.40;99.90;;;;;;5097506;28;20025;-85
2022/06/12 01:56:41;;;;;;;10.27;2.50;;;18.40;99.90;;;;;;5095780;28;20036;-85
2022/06/12 01:59:26;;;;;;;4.75;2.20;;;18.40;99.90;;;;;;5079566;28;20115;-85
2022/06/12 02:01:59;;;;;;;3.88;1.67;;;18.40;99.90;;;;;;5097065;28;20035;-85
2022/06/12 02:04:39;;;;;;;3.33;2.22;;;18.40;99.90;;;;;;5097172;28;20448;-85
2022/06/12 02:07:38;;;;;;;5.95;2.15;;;18.30;99.90;;;;;;5079472;28;20047;-85
2022/06/12 02:10:10;;;;;;;2.58;2.00;;;18.30;99.90;;;;;;5079202;28;20093;-86
2022/06/12 02:15:34;;;;;;;3.33;1.90;;;18.10;99.90;;;;;;5096279;28;20059;-87
2022/06/12 02:18:07;;;;;;;5.78;2.00;;;18.10;99.90;;;;;;5096946;28;20073;-86
2022/06/12 02:20:37;;;;;;;3.75;2.28;;;18.10;99.90;;;;;;5078551;28;20036;-86
2022/06/12 02:23:08;;;;;;;6.40;2.25;;;18.10;99.90;;;;;;5096674;28;20115;-88
2022/06/12 02:25:39;;;;;;;2.17;1.80;;;18.10;99.90;;;;;;5096383;28;20043;-88
2022/06/12 02:28:11;;;;;;;2.60;1.92;;;18.10;99.90;;;;;;5096792;28;20027;-88
2022/06/12 02:30:43;;;;;;;4.25;2.15;;;18.00;99.90;;;;;;5096240;28;20032;-86
2022/06/12 02:33:21;;;;;;;3.35;2.00;;;18.00;99.90;;;;;;5078320;28;20028;-87
2022/06/12 02:36:02;;;;;;;2.65;1.90;;;18.00;99.90;;;;;;5078114;28;20036;-87
2022/06/12 02:38:38;;;;;;;3.05;1.88;;;18.00;99.90;;;;;;5078250;28;20366;-87
2022/06/12 02:41:34;;;;;;;6.38;2.20;;;18.00;99.90;;;;;;5096517;28;20059;-87
2022/06/12 02:44:07;;;;;;;3.30;2.22;;;18.00;99.90;;;;;;5047604;28;20043;-87
2022/06/12 02:46:40;;;;;;;4.00;2.20;;;18.00;99.90;;;;;;5096038;28;20031;-87
2022/06/12 02:49:09;;;;;;;6.03;1.90;;;18.00;99.90;;;;;;5096547;28;20025;-86
2022/06/12 02:52:01;;;;;;;3.38;2.33;;;18.00;99.90;;;;;;5095907;28;20028;-83
2022/06/12 02:54:33;;;;;;;4.38;2.10;;;18.00;99.90;;;;;;5078017;28;20020;-85
2022/06/12 02:57:05;;;;;;;3.65;2.33;;;18.00;99.90;;;;;;5078044;28;20119;-83
2022/06/12 02:59:48;;;;;;;4.70;1.98;;;17.90;99.90;;;;;;5095419;28;20063;-83
2022/06/12 03:02:29;;;;;;;3.70;2.20;;;17.80;99.90;;;;;;5077948;28;20153;-83
2022/06/12 03:05:11;;;;;;;4.25;2.03;;;17.70;99.90;;;;;;5077921;28;20036;-84
2022/06/12 03:07:36;;;;;;;2.97;2.30;;;17.70;99.90;;;;;;5077695;28;20028;-83
2022/06/12 03:10:11;;;;;;;3.45;1.90;;;17.70;99.90;;;;;;5094915;28;20020;-84
2022/06/12 03:12:37;;;;;;;7.43;2.13;;;17.70;99.90;;;;;;5095613;28;20080;-86
2022/06/12 03:15:08;;;;;;;2.47;2.20;;;17.70;99.90;;;;;;5094926;28;20114;-84
2022/06/12 03:17:33;;;;;;;6.10;2.20;;;17.70;99.90;;;;;;5093701;28;20105;-85
2022/06/12 03:19:59;;;;;;;3.88;2.30;;;17.60;99.90;;;;;;5095552;28;20028;-85
2022/06/12 03:22:43;;;;;;;3.42;2.10;;;17.60;99.90;;;;;;5094477;28;20028;-85
2022/06/12 03:25:14;;;;;;;5.25;2.20;;;17.50;99.90;;;;;;5094936;28;20107;-85
2022/06/12 03:28:07;;;;;;;4.45;2.35;;;17.50;99.90;;;;;;5095141;28;20024;-85
2022/06/12 03:30:40;;;;;;;6.22;2.25;;;17.50;99.90;;;;;;5094567;28;20028;-86
2022/06/12 03:33:10;;;;;;;3.30;2.22;;;17.40;99.90;;;;;;5094787;28;20423;-85
2022/06/12 03:35:45;;;;;;;5.50;2.20;;;17.50;99.90;;;;;;5095186;28;20025;-85
2022/06/12 03:38:24;;;;;;;5.68;2.20;;;17.40;99.90;;;;;;5094371;28;20032;-84
2022/06/12 03:41:13;;;;;;;4.30;2.30;;;17.40;99.90;;;;;;5094004;28;20323;-84
2022/06/12 03:43:50;;;;;;;8.93;2.38;;;17.40;99.90;;;;;;5083095;28;20127;-84
2022/06/12 03:46:39;;;;;;;7.53;2.00;;;17.40;99.90;;;;;;5094297;28;20031;-83
2022/06/12 03:49:31;;;;;;;5.85;2.20;;;17.30;99.90;;;;;;5093915;28;20027;-83
2022/06/12 03:52:23;;;;;;;3.72;1.88;;;17.30;99.90;;;;;;5095119;28;20031;-84
2022/06/12 03:54:51;;;;;;;7.68;2.28;;;17.30;99.90;;;;;;5093509;28;20036;-84
2022/06/12 04:00:18;;;;;;;3.38;2.00;;;17.40;99.90;;;;;;5094660;28;20580;-84
2022/06/12 04:02:50;;;;;;;3.53;2.20;;;17.40;99.90;;;;;;5093374;28;20483;-84
2022/06/12 04:05:24;;;;;;;;;;;17.40;99.90;;;;;;5094146;28;20032;-84
2022/06/12 04:07:55;;;;;;;5.28;2.20;;;17.40;99.90;;;;;;5093082;28;19908;-84
2022/06/12 04:10:25;;;;;;;3.97;2.08;;;17.30;99.90;;;;;;5094948;28;20023;-85
2022/06/12 04:12:51;;;;;;;3.00;2.08;;;17.30;99.90;;;;;;5093686;28;20074;-85
2022/06/12 04:15:38;;;;;;;2.97;2.00;;;17.30;99.90;;;;;;5094587;28;20052;-85
2022/06/12 04:18:04;;;;;;;6.20;1.98;;;17.40;99.90;;;;;;5094363;28;20078;-85
2022/06/12 04:20:47;;;;;;;5.28;2.10;;;17.40;99.90;;;;;;5076565;28;20016;-85
2022/06/12 04:23:23;;;;;;;4.25;2.42;;;17.40;99.90;;;;;;5076487;28;20098;-84
2022/06/12 04:26:01;;;;;;;5.88;2.45;;;17.50;99.90;;;;;;5094816;28;20106;-85
2022/06/12 04:28:32;;;;;;;4.18;2.40;;;17.50;99.90;;;;;;5077501;28;20049;-85
2022/06/12 04:30:59;;;;;;;4.05;2.00;;;17.50;99.90;;;;;;5076053;28;20035;-85
2022/06/12 04:33:44;;;;;;;5.35;2.08;;;17.40;99.90;;;;;;5076611;28;20031;-85
2022/06/12 04:36:11;;;;;;;4.18;2.10;;;17.40;99.90;;;;;;5075980;28;20040;-85
2022/06/12 04:38:37;;;;;;;5.13;2.00;;;17.40;99.90;;;;;;5093714;28;20020;-83
2022/06/12 04:41:03;;;;;;;5.70;2.38;;;17.40;99.90;;;;;;5076137;28;20032;-84
2022/06/12 04:43:29;;;;;;;4.53;1.95;;;17.40;99.90;;;;;;5075896;28;20042;-82
2022/06/12 04:45:56;;;;;;;3.45;2.08;;;17.50;99.90;;;;;;5075703;28;20039;-83
2022/06/12 04:48:39;;;;;;;4.85;2.20;;;17.50;99.90;;;;;;5076138;28;20028;-80
2022/06/12 04:51:07;;;;;;;9.40;2.38;;;17.50;99.90;;;;;;5094274;28;20032;-81
2022/06/12 04:53:33;;;;;;;3.88;1.98;;;17.50;99.90;;;;;;5076012;28;20460;-81
2022/06/12 04:55:59;;;;;;;4.85;2.13;;;17.50;99.90;;;;;;5075660;28;20021;-81
2022/06/12 04:58:25;;;;;;;3.15;1.77;;;17.60;99.90;;;;;;5093957;28;20031;-81
2022/06/12 05:00:51;;;;;;;5.95;2.15;;;17.60;99.90;;;;;;5092205;28;20056;-81
2022/06/12 05:03:16;;;;;;;3.58;2.00;;;17.70;99.90;;;;;;5092913;28;20036;-81
2022/06/12 05:05:42;;;;;;;5.25;2.10;;;17.70;99.90;;;;;;5093674;28;20066;-81
2022/06/12 05:08:08;;;;;;;4.13;2.38;;;17.70;99.90;;;;;;5093923;28;20049;-80
2022/06/12 05:10:35;;;;;;;3.10;2.22;;;17.80;99.90;;;;;;5093848;28;20081;-80
2022/06/12 05:13:01;;;;;;;4.22;2.03;;;17.80;99.90;;;;;;5093988;28;20031;-81
2022/06/12 05:15:26;;;;;;;3.28;2.10;;;17.80;99.90;;;;;;5093570;28;20044;-81
2022/06/12 05:17:52;;;;;;;4.65;2.53;;;17.90;99.90;;;;;;5093309;28;20024;-82
2022/06/12 05:20:28;;;;;;;4.55;2.45;;;17.90;99.90;;;;;;5075894;28;20030;-81
2022/06/12 05:22:55;;;;;;;3.08;2.30;;;18.00;99.90;;;;;;5093190;28;20043;-81
2022/06/12 05:25:23;;;;;;;5.68;2.35;;;18.10;99.90;;;;;;5075717;28;20024;-81
2022/06/12 05:27:49;;;;;;;2.45;2.10;;;18.10;99.90;;;;;;5075172;28;20553;-82
2022/06/12 05:30:19;;;;;;;3.83;2.33;;;18.10;99.90;;;;;;5093714;28;20527;-81
2022/06/12 05:32:46;;;;;;;7.63;2.50;;;18.10;99.90;;;;;;5093235;28;20028;-79
2022/06/12 05:35:12;;;;;;;2.95;2.47;;;18.10;99.90;;;;;;5093150;28;20078;-80
2022/06/12 05:37:38;;;;;;;3.65;2.80;;;18.20;99.90;;;;;;5093145;28;20089;-83
2022/06/12 05:40:10;;;;;;;4.25;2.53;;;18.30;99.90;;;;;;5075641;28;20036;-83
2022/06/12 05:42:37;;;;;;;3.85;2.35;;;18.30;99.90;;;;;;5093465;28;20461;-83
2022/06/12 05:45:05;;;;;;;4.13;2.30;;;18.30;99.90;;;;;;5075229;28;20085;-83
2022/06/12 05:47:30;;;;;;;3.80;1.90;;;18.30;99.90;;;;;;5093572;28;20020;-83
2022/06/12 05:49:56;;;;;;;6.43;3.00;;;18.40;99.90;;;;;;5092097;28;20040;-83
2022/06/12 05:52:22;;;;;;;6.72;3.17;;;18.50;99.90;;;;;;5092514;28;20047;-83
2022/06/12 05:54:47;;;;;;;4.22;2.80;;;18.60;99.90;;;;;;5095762;28;20077;-83
2022/06/12 05:57:13;;;;;;;6.15;2.85;;;18.80;99.90;;;;;;5097392;28;20020;-83
2022/06/12 05:59:39;;;;;;;6.07;3.20;;;18.80;99.90;;;;;;5095479;28;20020;-84
2022/06/12 06:02:06;;;;;;;4.75;3.13;;;18.90;99.90;;;;;;5095615;28;20417;-83
2022/06/12 06:04:32;;;;;;;5.55;3.17;;;18.90;99.90;;;;;;5097244;28;20051;-85
2022/06/12 06:06:59;;;;;;;6.15;3.30;;;19.00;99.90;;;;;;5096583;28;20033;-84
2022/06/12 06:09:26;;;;;;;6.82;3.20;;;19.10;99.90;;;;;;5095829;28;20020;-84
2022/06/12 06:11:53;;;;;;;8.00;3.22;;;19.20;99.90;;;;;;5078184;28;20075;-83
2022/06/12 06:14:19;;;;;;;4.32;2.80;;;19.20;99.90;;;;;;5078929;28;20024;-83
2022/06/12 06:16:45;;;;;;;5.20;3.53;;;19.30;99.90;;;;;;5093422;28;20048;-84
2022/06/12 06:19:12;;;;;;;6.70;3.15;;;19.40;99.90;;;;;;5095812;28;20077;-84
2022/06/12 06:21:39;;;;;;;10.23;3.60;;;19.40;99.90;;;;;;5095357;28;20032;-83
2022/06/12 06:24:05;;;;;;;6.75;3.42;;;19.40;99.90;;;;;;5095569;28;20035;-84
2022/06/12 06:26:31;;;;;;;5.70;3.40;;;19.50;99.90;;;;;;5095516;28;20031;-83
2022/06/12 06:28:57;;;;;;;4.53;3.20;;;19.60;99.90;;;;;;5095978;28;20021;-85
2022/06/12 06:31:23;;;;;;;6.80;3.38;;;19.60;99.90;;;;;;5095256;28;20105;-81
2022/06/12 06:33:48;;;;;;;6.05;3.50;;;19.60;99.90;;;;;;5094742;28;20369;-82
2022/06/12 06:36:18;;;;;;;5.32;3.20;;;19.70;99.90;;;;;;5095055;28;20039;-82
2022/06/12 06:38:45;;;;;;;6.43;3.90;;;19.80;99.90;;;;;;5094833;28;20062;-82
2022/06/12 06:41:12;;;;;;;7.10;3.35;;;19.80;99.90;;;;;;5095850;28;20035;-82
2022/06/12 06:46:23;;;;;;;4.85;3.42;;;19.90;99.90;;;;;;5096133;28;20085;-86
2022/06/12 06:48:49;;;;;;;6.22;3.33;;;19.90;99.90;;;;;;5112344;28;20059;-87
2022/06/12 06:51:15;;;;;;;4.82;3.15;;;19.90;99.90;;;;;;5112067;28;20468;-82
2022/06/12 06:53:41;;;;;;;4.40;3.08;;;20.00;99.90;;;;;;5095810;28;20023;-81
2022/06/12 06:56:07;;;;;;;4.45;2.83;;;20.00;99.90;;;;;;5096714;28;20024;-86
2022/06/12 06:58:35;;;;;;;5.43;2.85;;;20.10;99.90;;;;;;5098489;28;20077;-86
2022/06/12 07:01:02;;;;;;;4.00;3.05;;;20.10;99.90;;;;;;5098551;28;20024;-85
2022/06/12 07:03:29;;;;;;;5.80;3.47;;;20.10;99.90;;;;;;5097188;28;20060;-85
2022/06/12 07:05:55;;;;;;;6.95;3.33;;;20.20;99.90;;;;;;5094762;28;20465;-85
2022/06/12 07:08:23;;;;;;;4.18;2.88;;;20.20;99.90;;;;;;5097010;28;20042;-85
2022/06/12 07:10:50;;;;;;;5.78;3.38;;;20.20;99.90;;;;;;5098180;28;20028;-84
2022/06/12 07:13:16;;;;;;;6.95;3.22;;;20.20;99.90;;;;;;5095947;28;20031;-85
2022/06/12 07:15:42;;;;;;;6.60;2.90;;;20.20;99.90;;;;;;5113419;28;20505;-84
2022/06/12 07:18:09;;;;;;;6.25;3.08;;;20.30;99.90;;;;;;5098079;28;20035;-86
2022/06/12 07:20:39;;;;;;;5.82;3.40;;;20.50;99.90;;;;;;5095199;28;20050;-86
2022/06/12 07:23:07;;;;;;;10.68;4.22;;;20.50;99.90;;;;;;5094276;28;20465;-85
2022/06/12 07:25:39;;;;;;;4.50;3.20;;;20.50;99.90;;;;;;5095660;28;20024;-86
2022/06/12 07:28:05;;;;;;;7.35;3.10;;;20.50;99.90;;;;;;5094088;28;20028;-86
2022/06/12 07:30:30;;;;;;;4.32;2.55;;;20.50;99.90;;;;;;5095377;28;20024;-87
2022/06/12 07:32:56;;;;;;;5.68;3.10;;;20.60;99.90;;;;;;5094469;28;20016;-84
2022/06/12 07:35:22;;;;;;;6.25;3.03;;;20.60;99.90;;;;;;5095707;28;20039;-84
2022/06/12 07:37:48;;;;;;;5.97;3.00;;;20.60;99.90;;;;;;5094291;28;20043;-85
2022/06/12 07:40:22;;;;;;;7.97;3.17;;;20.60;99.90;;;;;;5095208;28;20035;-85
2022/06/12 07:42:48;;;;;;;3.97;3.15;;;20.70;99.90;;;;;;5093975;28;20032;-85
2022/06/12 07:45:14;;;;;;;5.57;2.80;;;20.70;99.90;;;;;;5094280;28;20445;-85
2022/06/12 07:47:40;;;;;;;6.22;2.90;;;20.80;99.90;;;;;;5095267;28;20020;-86
2022/06/12 07:50:06;;;;;;;6.00;3.35;;;20.90;99.90;;;;;;5094553;28;20031;-85
2022/06/12 07:52:32;;;;;;;8.10;3.30;;;20.80;99.90;;;;;;5093994;28;20032;-83
2022/06/12 07:54:58;;;;;;;4.45;3.20;;;20.90;99.90;;;;;;5094586;28;20024;-84
2022/06/12 07:57:24;;;;;;;7.03;3.00;;;21.00;99.90;;;;;;5093969;28;20442;-83
2022/06/12 07:59:50;;;;;;;4.40;3.03;;;21.00;99.90;;;;;;5093432;28;20093;-83
2022/06/12 08:02:16;;;;;;;5.95;3.08;;;21.00;99.90;;;;;;5093517;28;20480;-82
2022/06/12 08:04:41;;;;;;;3.22;2.85;;;21.10;99.90;;;;;;5110400;28;20405;-82
2022/06/12 08:07:07;;;;;;;6.50;3.22;;;21.10;99.90;;;;;;5094199;28;20035;-83
2022/06/12 08:09:33;;;;;;;4.10;3.15;;;21.20;99.90;;;;;;5110404;28;20028;-87
2022/06/12 08:11:58;;;;;;;4.32;2.90;;;21.20;99.90;;;;;;5109956;28;20098;-85
2022/06/12 08:14:25;;;;;;;5.07;2.90;;;21.30;99.90;;;;;;5094842;28;20107;-85
2022/06/12 08:16:51;;;;;;;5.13;3.20;;;21.30;99.90;;;;;;5092605;28;20048;-85
2022/06/12 08:22:04;;;;;;;9.52;3.28;;;21.30;99.90;;;;;;5094230;28;20043;-88
2022/06/12 08:24:30;;;;;;;6.15;2.83;;;21.30;99.90;;;;;;5095555;28;20397;-84
2022/06/12 08:26:56;;;;;;;5.35;2.97;;;21.40;99.90;;;;;;5100487;28;20024;-84
2022/06/12 08:29:22;;;;;;;4.55;2.83;;;21.40;99.90;;;;;;5101814;28;20591;-87
2022/06/12 08:31:52;;;;;;;4.70;2.60;;;21.40;99.90;;;;;;5103474;28;20497;-88
2022/06/12 08:34:25;;;;;;;3.58;2.95;;;21.50;99.90;;;;;;5104114;28;20464;-84
2022/06/12 08:36:52;;;;;;;6.75;3.83;;;21.70;99.90;;;;;;5101037;28;20050;-85
2022/06/12 08:39:19;;;;;;;4.18;3.15;;;21.70;99.90;;;;;;5106176;28;20492;-84
2022/06/12 08:42:12;;;;;;;4.80;2.90;;;21.70;99.90;;;;;;5102687;28;20055;-82
2022/06/12 08:44:52;;;;;;;4.65;3.08;;;21.70;99.90;;;;;;5101346;28;21229;-89
2022/06/12 08:47:34;;;;;;;4.80;3.00;;;21.80;99.90;;;;;;5104584;28;20030;-86
2022/06/12 08:50:21;;;;;;;3.85;2.42;;;21.80;99.90;;;;;;5102054;28;20145;-90
2022/06/12 08:52:54;;;;;;;4.35;2.50;;;21.80;99.90;;;;;;5105288;28;20024;-96
2022/06/12 08:55:41;;;;;;;4.90;3.10;;;21.80;99.90;;;;;;5111573;28;20027;-89
2022/06/12 08:58:18;;;;;;;6.05;3.75;;;21.80;99.90;;;;;;5096030;28;20028;-96
2022/06/12 09:00:46;;;;;;;5.50;2.72;;;22.10;99.90;;;;;;5103082;28;20456;-96
2022/06/12 09:03:19;;;;;;;4.68;2.80;;;22.10;99.90;;;;;;5111529;28;20119;-91
2022/06/12 09:05:52;;;;;;;3.88;2.60;;;22.10;99.90;;;;;;5114864;28;20169;-96
2022/06/12 09:08:48;;;;;;;5.38;2.80;;;22.20;99.90;;;;;;5102743;28;20451;-91
2022/06/12 09:11:29;;;;;;;4.07;2.83;;;22.10;99.90;;;;;;5096457;28;20161;-92
2022/06/12 09:14:10;;;;;;;4.50;3.45;;;22.10;99.90;;;;;;5093580;28;20032;-85
2022/06/12 09:16:44;;;;;;;4.30;3.00;;;22.20;99.90;;;;;;5094086;28;20044;-81
2022/06/12 09:19:15;;;;;;;5.70;3.10;;;22.20;99.90;;;;;;5087174;28;20036;-79
2022/06/12 09:21:51;;;;;;;2.92;2.53;;;22.20;99.90;;;;;;5092499;28;20047;-79
2022/06/12 09:24:25;;;;;;;5.53;3.00;;;22.30;99.90;;;;;;5074631;28;20123;-79
2022/06/12 09:27:04;;;;;;;5.53;3.03;;;22.30;99.90;;;;;;5080444;28;20063;-80
2022/06/12 09:29:46;;;;;;;6.20;3.13;;;22.40;99.90;;;;;;5080569;28;20024;-79
2022/06/12 09:32:27;;;;;;;4.55;2.63;;;22.50;99.90;;;;;;5078067;28;20066;-80
2022/06/12 09:35:18;;;;;;;4.45;2.63;;;22.60;99.90;;;;;;5095892;28;20346;-80
2022/06/12 09:38:18;;;;;;;4.25;2.60;;;22.60;99.80;;;;;;5072878;28;20039;-84
2022/06/12 09:41:25;;;;;;;3.83;2.50;;;22.70;99.90;;;;;;5101911;28;20032;-84
2022/06/12 09:44:02;;;;;;;5.25;2.75;;;22.80;99.90;;;;;;5085297;28;20477;-82
2022/06/12 09:46:35;;;;;;;4.10;2.20;;;22.90;99.90;;;;;;5096798;28;20024;-81
2022/06/12 09:49:19;;;;;;;3.45;2.13;;;23.00;99.10;;;;;;5090812;28;20034;-80
2022/06/12 09:51:55;;;;;;;3.63;2.28;;;23.10;98.70;;;;;;5117316;28;20031;-81
2022/06/12 09:54:29;;;;;;;4.15;2.28;;;23.20;98.50;;;;;;5098891;28;20030;-82
2022/06/12 09:57:34;;;;;;;4.90;2.17;;;23.30;98.60;;;;;;5084487;28;20024;-82
2022/06/12 10:00:05;;;;;;;4.72;1.90;;;23.40;98.20;;;;;;5076628;28;20042;-81
2022/06/12 10:02:59;;;;;;;3.42;2.20;;;23.30;98.00;;;;;;5099531;28;20023;-81
2022/06/12 10:05:31;;;;;;;3.65;2.28;;;23.30;97.70;;;;;;5089077;28;20052;-82
2022/06/12 10:08:25;;;;;;;4.50;2.30;;;23.40;97.50;;;;;;5093278;28;20035;-82
2022/06/12 10:11:10;;;;;;;4.55;1.80;;;23.40;97.40;;;;;;5092427;28;20023;-80
2022/06/12 10:13:43;;;;;;;2.80;1.80;;;23.50;97.20;;;;;;5097212;28;20020;-82
2022/06/12 10:16:19;;;;;;;3.25;1.42;;;23.50;97.20;;;;;;5101876;28;20047;-81
2022/06/12 10:19:03;;;;;;;2.92;1.70;;;23.60;95.60;;;;;;5080442;28;20036;-78
2022/06/12 10:21:34;;;;;;;3.33;1.70;;;23.80;95.60;;;;;;5109474;28;20020;-78
2022/06/12 10:24:01;;;;;;;2.17;1.52;;;23.80;95.50;;;;;;5083329;28;20031;-79
2022/06/12 10:26:31;;;;;;;6.75;4.43;;;23.80;94.70;;;;;;5094312;28;20161;-78
2022/06/12 10:29:04;;;;;;;3.65;3.03;;;23.70;94.30;;;;;;5079923;28;20024;-78
2022/06/12 10:31:34;;;;;;;4.70;2.50;;;23.80;94.10;;;;;;5085951;28;20035;-78
2022/06/12 10:34:16;;;;;;;4.00;2.20;;;23.70;94.10;;;;;;5104743;28;20027;-83
2022/06/12 10:36:42;;;;;;;4.97;1.70;;;23.70;93.40;;;;;;5118251;28;20047;-82
2022/06/12 10:39:14;;;;;;;3.38;1.58;;;23.80;93.30;;;;;;5098448;28;20027;-83
2022/06/12 10:42:05;;;;;;;4.63;1.40;;;23.90;92.70;;;;;;5097735;28;20023;-83
2022/06/12 10:44:53;;;;;;;6.57;1.55;;;24.00;92.70;;;;;;5099124;28;20067;-82
2022/06/12 10:47:27;;;;;;;1.35;1.08;;;24.00;91.70;;;;;;5100241;28;20031;-81
2022/06/12 10:50:13;;;;;;;1.20;1.10;;;24.00;91.60;;;;;;5080527;28;20031;-82
2022/06/12 10:52:58;;;;;;;2.30;1.10;;;24.10;91.30;;;;;;5089152;28;20024;-86
2022/06/12 10:55:38;;;;;;;1.08;1.00;;;24.00;91.50;;;;;;5086698;28;20016;-86
2022/06/12 10:58:39;;;;;;;2.97;1.30;;;24.00;91.40;;;;;;5063081;28;20041;-85
2022/06/12 11:01:28;;;;;;;4.43;1.23;;;24.00;91.40;;;;;;5050007;28;20032;-88
2022/06/12 11:04:20;;;;;;;2.03;1.52;;;24.30;92.30;;;;;;5093041;28;20036;-88
2022/06/12 11:07:14;;;;;;;3.17;1.10;;;24.30;91.50;;;;;;5043505;28;20079;-88
2022/06/12 11:09:45;;;;;;;3.08;1.23;;;24.20;91.20;;;;;;5065767;28;20070;-85
2022/06/12 11:12:16;;;;;;;;;;;24.30;90.60;;;;;;5051967;28;20830;-85
2022/06/12 11:15:12;;;;;;;48.53;25.38;;;24.40;90.40;;;;;;5061698;28;19913;-82
2022/06/12 11:17:57;;;;;;;108.88;52.67;;;24.60;90.60;;;;;;5069573;28;20115;-84
2022/06/12 11:20:45;;;;;;;15.00;9.38;;;24.70;91.20;;;;;;5077326;28;20046;-85
2022/06/12 11:23:51;;;;;;;7.75;3.70;;;24.80;90.40;;;;;;5074381;28;20041;-84
2022/06/12 11:26:44;;;;;;;5.07;2.42;;;25.00;89.30;;;;;;5045505;28;20029;-83
2022/06/12 11:29:39;;;;;;;3.67;2.03;;;25.10;89.40;;;;;;5075038;28;20385;-85
2022/06/12 11:32:34;;;;;;;2.97;1.75;;;25.10;88.80;;;;;;5076977;28;20037;-87
2022/06/12 11:35:12;;;;;;;2.22;1.40;;;25.10;88.70;;;;;;5062860;28;20074;-87
2022/06/12 11:37:53;;;;;;;3.15;1.50;;;25.20;87.60;;;;;;5083344;28;20067;-88
2022/06/12 11:40:57;;;;;;;2.63;1.33;;;25.20;88.40;;;;;;5070567;28;20604;-87
2022/06/12 11:43:37;;;;;;;2.10;1.52;;;25.30;85.30;;;;;;5031271;28;20037;-89
2022/06/12 11:46:36;;;;;;;2.42;1.50;;;25.40;86.10;;;;;;5030013;28;20041;-93
2022/06/12 11:49:29;;;;;;;;;;;;;;;;;;;;;
2022/06/12 11:52:10;;;;;;;1.33;1.08;;;25.70;85.90;;;;;;5030429;28;20096;-91
2022/06/12 11:54:45;;;;;;;3.33;1.33;;;26.00;85.60;;;;;;5027587;28;20053;-92
2022/06/12 11:57:34;;;;;;;1.83;1.33;;;26.20;83.70;;;;;;5013771;28;20450;-89
2022/06/12 12:00:12;;;;;;;2.67;1.42;;;26.40;81.40;;;;;;5035061;28;20033;-86
2022/06/12 12:02:56;;;;;;;2.58;1.23;;;26.60;82.10;;;;;;5038745;28;20033;-88
2022/06/12 12:05:39;;;;;;;1.45;1.08;;;26.60;81.30;;;;;;5030129;28;20045;-93
2022/06/12 12:08:35;;;;;;;3.05;1.38;;;26.70;78.40;;;;;;5027583;28;20029;-87
2022/06/12 12:11:17;;;;;;;2.40;1.38;;;26.70;77.90;;;;;;5022760;28;20033;-93
2022/06/12 12:13:47;;;;;;;4.82;1.15;;;26.80;78.90;;;;;;5016030;28;20029;-87
2022/06/12 12:16:12;;;;;;;5.28;1.35;;;26.80;78.00;;;;;;5018007;28;20114;-89
2022/06/12 12:19:05;;;;;;;2.67;1.05;;;26.80;76.00;;;;;;5048825;28;20058;-92
2022/06/12 12:21:51;;;;;;;3.70;1.50;;;26.80;75.70;;;;;;5107605;28;20024;-89
2022/06/12 12:24:29;;;;;;;2.05;1.20;;;27.00;76.50;;;;;;5103498;28;20031;-87
2022/06/12 12:27:01;;;;;;;2.67;1.30;;;27.20;75.10;;;;;;5095858;28;20028;-89
2022/06/12 12:29:36;;;;;;;4.50;1.42;;;27.20;75.90;;;;;;5111601;28;20057;-91
2022/06/12 12:32:08;;;;;;;3.50;2.33;;;27.10;79.20;;;;;;5098897;28;20032;-92
2022/06/12 12:41:36;;;;;;;2.65;1.25;;;27.60;73.00;;;;;;5085531;28;20062;-95
2022/06/12 12:52:22;;;;;;;;;;;;;;;;;;;;;
2022/06/12 12:58:53;;;;;;;;;;;;;;;;;;;;;
2022/06/12 13:05:09;;;;;;;;;;;;;;;;;;;;;
2022/06/12 13:07:53;;;;;;;1.85;1.33;;;29.20;65.00;;;;;;4976405;28;20098;-88
2022/06/12 13:10:56;;;;;;;1.58;1.10;;;29.40;62.40;;;;;;4988258;28;20066;-87
2022/06/12 13:13:31;;;;;;;2.10;0.93;;;29.40;61.50;;;;;;4987299;28;20122;-85
2022/06/12 13:16:16;;;;;;;2.10;0.90;;;29.60;62.40;;;;;;4956752;29;20043;-89
2022/06/12 13:18:53;;;;;;;1.95;1.05;;;29.90;59.90;;;;;;4966698;29;20048;-86
2022/06/12 13:21:44;;;;;;;3.13;1.10;;;30.20;60.20;;;;;;4968571;29;20031;-85
2022/06/12 13:24:28;;;;;;;3.45;0.90;;;30.40;58.40;;;;;;4981102;28;20098;-86
2022/06/12 13:26:55;;;;;;;2.92;1.10;;;30.70;59.20;;;;;;5002252;28;20031;-88
2022/06/12 13:29:23;;;;;;;3.42;1.15;;;30.50;58.80;;;;;;4992755;28;20026;-86
2022/06/12 13:32:18;;;;;;;2.38;1.20;;;30.30;58.20;;;;;;5117731;28;20028;-86
2022/06/12 13:35:00;;;;;;;2.72;0.88;;;30.10;57.50;;;;;;5127389;28;20091;-86
2022/06/12 13:37:35;;;;;;;3.03;0.80;;;30.50;57.50;;;;;;5128825;28;20032;-84
2022/06/12 13:40:04;;;;;;;3.65;1.20;;;31.30;56.10;;;;;;5127287;28;20140;-86
2022/06/12 13:42:31;;;;;;;1.88;0.90;;;31.80;55.80;;;;;;5127707;28;20032;-85
2022/06/12 13:44:58;;;;;;;1.88;0.98;;;32.30;54.50;;;;;;5126860;28;20031;-88
2022/06/12 13:47:38;;;;;;;1.60;1.00;;;32.20;54.50;;;;;;5127961;28;20062;-87
2022/06/12 13:50:06;;;;;;;2.03;0.95;;;31.70;55.50;;;;;;5095832;28;20032;-80
2022/06/12 13:52:38;;;;;;;2.75;1.25;;;31.70;56.40;;;;;;5097903;28;20093;-81
2022/06/12 13:55:26;;;;;;;3.25;1.35;;;32.10;54.80;;;;;;5098110;28;20028;-85
2022/06/12 13:57:54;;;;;;;1.80;1.15;;;32.50;54.60;;;;;;5098982;28;20064;-82
2022/06/12 14:01:14;;;;;;;;;;;;;;;;;;;;;
2022/06/12 14:03:55;;;;;;;1.80;1.02;;;32.30;53.50;;;;;;5217009;22;20060;-91
2022/06/12 14:06:27;;;;;;;2.95;1.02;;;31.90;53.90;;;;;;5016896;28;20050;-91
2022/06/12 14:09:21;;;;;;;1.27;0.98;;;31.70;54.50;;;;;;5026237;28;20025;-84